Terminal Aerodrome Forecast
Issued by NWS Cleveland, OH

Home | Current Version | Previous Version | Text Only | Print | Product List | Glossary On
Versions: 1 2 3 4 5 6 7 8 9 10 11 12 13 14
000
FTUS41 KCLE 242300
TAFTOL
TAF
KTOL 242330Z 2500/2524 15007KT P6SM FEW100 BKN250
     FM250800 19012KT P6SM SCT120 BKN250
     FM251500 20014G24KT P6SM SCT050 BKN120
     FM251900 22018G26KT P6SM VCTS BKN050CB=

USA.gov is the U.S. government's official web portal to all federal, state and local government web resources and services.